This is the latest recevied weather packets stored in our database for station/object IZ5MJO-13. If no packets are shown the sender has not sent any weather packets the latest 10 day(s).
| Time | Temp. | Humidity | Pressure | Rain* | Wind** | Luminosity | Snow |
|---|---|---|---|---|---|---|---|
| 1787910598 | 33.89° C | 39% | 1006.4 hPa | - | - | - | - |
| 1787909698 | 33.89° C | 38% | 1006.5 hPa | - | - | - | - |
| 1787908798 | 32.78° C | 42% | 1006.4 hPa | - | - | - | - |
| 1787907898 | 32.78° C | 42% | 1006.6 hPa | - | - | - | - |
| 1787906998 | 31.67° C | 47% | 1006.9 hPa | - | - | - | - |
| 1787906097 | 31.11° C | 46% | 1007 hPa | - | - | - | - |
| 1787905197 | 30.56° C | 48% | 1007.2 hPa | - | - | - | - |
| 1787904541 | 26.67° C | 56% | 1008.1 hPa | - | - | - | - |
| 1787904297 | 30.56° C | 48% | 1007.8 hPa | - | - | - | - |
| 1787903396 | 29.44° C | 49% | 1007.7 hPa | - | - | - | - |
| 1787902496 | 28.89° C | 51% | 1007.5 hPa | - | - | - | - |
| 1787901596 | 27.78° C | 53% | 1007.3 hPa | - | - | - | - |
| 1787900696 | 27.78° C | 54% | 1006.9 hPa | - | - | - | - |
| 1787899796 | 27.78° C | 56% | 1007.8 hPa | - | - | - | - |
| 1787898895 | 26.67° C | 59% | 1008.6 hPa | - | - | - | - |
| 1787897995 | 26.11° C | 59% | 1008.5 hPa | - | - | - | - |
| 1787897095 | 26.67° C | 56% | 1008.1 hPa | - | - | - | - |
| 1787896552 | 26.67° C | 60% | 1008.3 hPa | - | - | - | - |
| 1787896493 | 26.67° C | 61% | 1008.2 hPa | - | - | - | - |
| 1787896201 | 26.11° C | 56% | 1007.6 hPa | - | - | - | - |
| 1787895300 | 26.11° C | 58% | 1007.6 hPa | - | - | - | - |
| 1787894400 | 25.56° C | 58% | 1007.9 hPa | - | - | - | - |
| 1787893500 | 26.11° C | 56% | 1007.6 hPa | - | - | - | - |
| 1787892599 | 25.56° C | 59% | 1007.1 hPa | - | - | - | - |
| 1787891699 | 25.56° C | 59% | 1007 hPa | - | - | - | - |
* Rain since midnight (hover to see other rain measurements)
** Current wind speed in m/s (hover to see current wind gust speed)